Time;durP1;ratioP1;P1;durP2;ratioP2;P2;SDS_P1;SDS_P2;PMS_P1;PMS_P2;Temp;Humidity;BMP_temperature;BMP_pressure;BME280_temperature;BME280_humidity;BME280_pressure;Samples;Min_cycle;Max_cycle;Signal;HPM_P1;HPM_P2
2021/12/25 00:01:30;;;;;;;4.90;1.40;;;;;;;;;;5062696;28;20040;-71
2021/12/25 00:03:57;;;;;;;6.72;1.25;;;;;;;;;;5061834;28;20429;-71
2021/12/25 00:06:24;;;;;;;2.25;1.20;;;;;;;;;;5071340;28;20035;-71
2021/12/25 00:08:51;;;;;;;3.60;1.20;;;;;;;;;;5064121;28;20037;-71
2021/12/25 00:11:17;;;;;;;2.53;1.10;;;;;;;;;;5096064;28;20039;-71
2021/12/25 00:13:44;;;;;;;2.80;1.52;;;;;;;;;;5066098;28;20383;-71
2021/12/25 00:16:10;;;;;;;2.30;1.25;;;;;;;;;;5067860;28;20054;-71
2021/12/25 00:18:38;;;;;;;21.75;1.70;;;;;;;;;;5069594;28;20086;-71
2021/12/25 00:21:05;;;;;;;5.22;1.60;;;;;;;;;;5068720;28;20050;-71
2021/12/25 00:23:31;;;;;;;2.90;1.42;;;;;;;;;;5066053;28;20052;-71
2021/12/25 00:26:03;;;;;;;3.95;1.50;;;;;;;;;;5068289;28;20044;-71
2021/12/25 00:36:14;;;;;;;5.93;1.50;;;;;;;;;;5070317;28;20112;-71
2021/12/25 00:38:42;;;;;;;3.65;1.17;;;;;;;;;;5064862;28;20118;-71
2021/12/25 00:41:08;;;;;;;5.55;1.38;;;;;;;;;;5068995;28;20105;-71
2021/12/25 00:43:34;;;;;;;7.90;1.23;;;;;;;;;;5066868;28;20132;-71
2021/12/25 00:46:01;;;;;;;3.85;1.40;;;;;;;;;;5067140;28;20048;-71
2021/12/25 00:48:27;;;;;;;3.13;1.10;;;;;;;;;;5067422;28;20089;-71
2021/12/25 00:50:53;;;;;;;4.97;1.40;;;;;;;;;;5066766;28;20500;-71
2021/12/25 00:53:19;;;;;;;3.05;1.35;;;;;;;;;;5066183;28;20041;-71
2021/12/25 00:55:46;;;;;;;1.88;0.90;;;;;;;;;;5072283;28;20081;-71
2021/12/25 00:58:12;;;;;;;8.27;3.42;;;;;;;;;;5100546;28;20133;-72
2021/12/25 01:00:38;;;;;;;3.03;1.80;;;;;;;;;;5037452;28;20056;-71
2021/12/25 01:03:05;;;;;;;6.80;1.40;;;;;;;;;;5072865;28;20040;-72
2021/12/25 01:05:31;;;;;;;6.80;1.27;;;;;;;;;;5068981;28;20278;-71
2021/12/25 01:07:57;;;;;;;6.05;0.90;;;;;;;;;;5069909;28;20063;-72
2021/12/25 01:10:24;;;;;;;5.88;1.40;;;;;;;;;;5072514;28;20047;-71
2021/12/25 01:15:22;;;;;;;1.98;1.00;;;;;;;;;;5072100;28;20505;-71
2021/12/25 01:41:15;;;;;;;4.03;0.93;;;;;;;;;;5101706;27;20049;-71
2021/12/25 01:49:11;;;;;;;2.60;1.02;;;;;;;;;;5069408;28;20528;-71
2021/12/25 01:51:37;;;;;;;9.50;1.65;;;;;;;;;;5072238;28;20040;-71
2021/12/25 01:54:03;;;;;;;3.75;0.90;;;;;;;;;;5069693;28;20029;-71
2021/12/25 01:56:29;;;;;;;3.72;0.80;;;;;;;;;;5065005;28;20379;-71
2021/12/25 01:58:55;;;;;;;1.98;1.23;;;;;;;;;;5070755;28;20028;-71
2021/12/25 02:01:21;;;;;;;1.92;1.13;;;;;;;;;;5052653;28;20037;-71
2021/12/25 02:03:48;;;;;;;4.25;0.88;;;;;;;;;;5101212;27;20202;-71
2021/12/25 02:06:14;;;;;;;2.67;0.93;;;;;;;;;;5069197;28;20076;-71
2021/12/25 02:08:41;;;;;;;1.98;1.15;;;;;;;;;;5063692;28;20048;-72
2021/12/25 02:11:07;;;;;;;0.82;0.68;;;;;;;;;;5067745;28;20044;-71
2021/12/25 02:13:34;;;;;;;4.53;0.85;;;;;;;;;;5069453;28;20040;-71
2021/12/25 02:16:04;;;;;;;2.50;0.88;;;;;;;;;;5070059;28;20119;-71
2021/12/25 02:18:56;;;;;;;2.33;1.30;;;;;;;;;;5069506;28;20036;-71
2021/12/25 02:21:22;;;;;;;2.92;1.50;;;;;;;;;;5072274;28;20093;-71
2021/12/25 02:23:49;;;;;;;2.63;1.10;;;;;;;;;;5068672;28;20033;-71
2021/12/25 02:26:18;;;;;;;0.80;0.80;;;;;;;;;;5070956;28;20445;-71
2021/12/25 02:28:44;;;;;;;2.22;1.02;;;;;;;;;;5066451;28;20074;-71
2021/12/25 02:31:11;;;;;;;2.58;1.25;;;;;;;;;;5070027;28;20052;-71
2021/12/25 02:33:38;;;;;;;1.48;0.70;;;;;;;;;;5071597;28;20051;-71
2021/12/25 02:36:05;;;;;;;5.88;1.13;;;;;;;;;;5098502;28;20089;-72
2021/12/25 02:38:31;;;;;;;3.70;1.60;;;;;;;;;;5063788;28;20135;-72
2021/12/25 02:40:57;;;;;;;2.58;0.65;;;;;;;;;;5070365;28;20048;-71
2021/12/25 02:43:24;;;;;;;1.42;0.98;;;;;;;;;;5068548;28;20059;-71
2021/12/25 02:45:50;;;;;;;3.72;0.90;;;;;;;;;;5050886;28;20055;-71
2021/12/25 02:48:19;;;;;;;1.10;0.68;;;;;;;;;;5043765;28;20067;-71
2021/12/25 02:50:45;;;;;;;2.75;1.02;;;;;;;;;;5097038;28;20394;-70
2021/12/25 02:53:12;;;;;;;3.47;1.17;;;;;;;;;;5098896;27;20051;-70
2021/12/25 02:55:39;;;;;;;1.60;0.82;;;;;;;;;;5092306;27;20138;-70
2021/12/25 02:58:07;;;;;;;1.23;0.70;;;;;;;;;;5062940;28;20041;-70
2021/12/25 03:00:42;;;;;;;1.85;1.13;;;;;;;;;;5069258;28;20498;-70
2021/12/25 03:03:08;;;;;;;1.27;0.63;;;;;;;;;;5071628;28;20043;-70
2021/12/25 03:05:35;;;;;;;3.25;0.80;;;;;;;;;;5067072;28;20478;-70
2021/12/25 03:08:02;;;;;;;0.93;0.82;;;;;;;;;;5062259;28;20051;-70
2021/12/25 03:10:28;;;;;;;2.28;0.70;;;;;;;;;;5067411;28;20045;-70
2021/12/25 03:15:45;;;;;;;1.10;0.38;;;;;;;;;;5068230;28;20138;-70
2021/12/25 03:18:26;;;;;;;1.48;0.70;;;;;;;;;;5066128;28;20036;-70
2021/12/25 03:20:56;;;;;;;2.60;0.70;;;;;;;;;;5065747;28;20040;-71
2021/12/25 03:23:23;;;;;;;1.50;0.80;;;;;;;;;;5067504;28;20044;-70
2021/12/25 03:25:50;;;;;;;1.50;0.57;;;;;;;;;;5068217;28;20119;-70
2021/12/25 03:28:17;;;;;;;2.10;0.80;;;;;;;;;;5066543;28;20098;-70
2021/12/25 03:30:44;;;;;;;2.03;1.33;;;;;;;;;;5069996;28;20050;-70
2021/12/25 03:33:11;;;;;;;2.33;0.50;;;;;;;;;;5068087;28;20115;-70
2021/12/25 03:35:38;;;;;;;2.85;0.93;;;;;;;;;;5064754;28;20044;-70
2021/12/25 03:38:05;;;;;;;3.20;0.50;;;;;;;;;;5068872;28;20040;-70
2021/12/25 03:40:31;;;;;;;1.30;0.40;;;;;;;;;;5067052;28;20061;-70
2021/12/25 03:42:57;;;;;;;0.98;0.50;;;;;;;;;;5065958;28;20123;-70
2021/12/25 03:45:24;;;;;;;0.60;0.52;;;;;;;;;;5069003;28;20484;-70
2021/12/25 03:48:02;;;;;;;1.38;0.50;;;;;;;;;;5065414;28;20048;-71
2021/12/25 03:53:36;;;;;;;3.20;0.70;;;;;;;;;;5065816;28;20036;-70
2021/12/25 03:58:48;;;;;;;1.40;0.50;;;;;;;;;;5066053;28;20044;-70
2021/12/25 04:04:13;;;;;;;1.52;0.43;;;;;;;;;;5067841;28;20060;-70
2021/12/25 04:06:46;;;;;;;0.77;0.30;;;;;;;;;;5066350;28;20043;-70
2021/12/25 04:09:28;;;;;;;0.95;0.65;;;;;;;;;;5061642;28;20048;-70
2021/12/25 04:11:55;;;;;;;1.70;0.60;;;;;;;;;;5090768;28;20443;-70
2021/12/25 04:14:21;;;;;;;1.42;0.60;;;;;;;;;;5064685;28;20043;-70
2021/12/25 04:16:47;;;;;;;0.63;0.40;;;;;;;;;;5050127;28;20036;-70
2021/12/25 04:19:15;;;;;;;0.52;0.47;;;;;;;;;;5065423;28;20127;-70
2021/12/25 04:21:50;;;;;;;0.38;0.32;;;;;;;;;;5099636;28;20472;-70
2021/12/25 04:24:17;;;;;;;1.00;0.60;;;;;;;;;;5065853;28;20457;-70
2021/12/25 04:26:45;;;;;;;3.00;0.55;;;;;;;;;;5067949;28;20036;-69
2021/12/25 04:29:32;;;;;;;3.20;0.68;;;;;;;;;;5068014;28;20067;-70
2021/12/25 05:02:21;;;;;;;1.17;0.63;;;;;;;;;;5066262;28;20059;-70
2021/12/25 05:04:53;;;;;;;0.88;0.30;;;;;;;;;;5060751;28;20490;-70
2021/12/25 05:07:19;;;;;;;0.47;0.40;;;;;;;;;;5065186;28;20040;-69
2021/12/25 05:09:45;;;;;;;0.68;0.50;;;;;;;;;;5069378;28;20033;-70
2021/12/25 05:12:11;;;;;;;1.58;0.70;;;;;;;;;;5067302;28;20048;-69
2021/12/25 05:14:39;;;;;;;2.75;0.60;;;;;;;;;;5070826;28;20556;-70
2021/12/25 05:17:06;;;;;;;2.13;0.70;;;;;;;;;;5067509;28;20714;-70
2021/12/25 05:19:33;;;;;;;0.85;0.40;;;;;;;;;;5070486;28;20131;-70
2021/12/25 05:21:59;;;;;;;0.65;0.45;;;;;;;;;;5069279;28;20052;-70
2021/12/25 05:24:27;;;;;;;0.65;0.45;;;;;;;;;;5054241;28;20052;-70
2021/12/25 05:26:57;;;;;;;2.90;0.65;;;;;;;;;;5069252;28;20044;-70
2021/12/25 05:29:25;;;;;;;1.48;0.60;;;;;;;;;;5065919;28;20080;-70
2021/12/25 05:31:52;;;;;;;2.17;0.68;;;;;;;;;;5061789;28;20049;-70
2021/12/25 05:34:18;;;;;;;0.73;0.38;;;;;;;;;;5064209;28;20032;-70
2021/12/25 05:36:44;;;;;;;1.48;0.60;;;;;;;;;;5094396;27;20163;-70
2021/12/25 05:39:13;;;;;;;1.88;0.95;;;;;;;;;;5075929;28;20040;-70
2021/12/25 05:41:39;;;;;;;2.10;0.50;;;;;;;;;;5066227;28;20041;-70
2021/12/25 05:44:06;;;;;;;0.45;0.45;;;;;;;;;;5067772;28;20057;-70
2021/12/25 05:46:32;;;;;;;3.97;0.57;;;;;;;;;;5098183;27;20040;-70
2021/12/25 05:48:58;;;;;;;0.88;0.50;;;;;;;;;;5070647;28;20047;-70
2021/12/25 05:51:24;;;;;;;2.50;0.60;;;;;;;;;;5068679;28;20033;-70
2021/12/25 05:53:50;;;;;;;1.40;0.73;;;;;;;;;;5068593;28;20106;-70
2021/12/25 05:56:16;;;;;;;2.03;0.60;;;;;;;;;;5066770;28;20448;-70
2021/12/25 05:58:43;;;;;;;0.55;0.45;;;;;;;;;;5068383;28;20489;-70
2021/12/25 06:01:09;;;;;;;1.20;0.45;;;;;;;;;;5072101;28;20075;-70
2021/12/25 06:03:35;;;;;;;1.15;0.63;;;;;;;;;;5066708;28;20049;-70
2021/12/25 06:06:02;;;;;;;0.85;0.30;;;;;;;;;;5069947;28;20102;-70
2021/12/25 06:08:28;;;;;;;1.40;0.60;;;;;;;;;;5069434;28;20114;-70
2021/12/25 06:10:55;;;;;;;0.73;0.40;;;;;;;;;;5068098;28;20445;-70
2021/12/25 06:13:22;;;;;;;2.60;1.38;;;;;;;;;;5068830;28;20408;-70
2021/12/25 06:15:49;;;;;;;1.92;0.65;;;;;;;;;;5065852;28;20040;-69
2021/12/25 06:18:15;;;;;;;1.05;0.60;;;;;;;;;;5050420;28;20044;-70
2021/12/25 06:20:42;;;;;;;2.50;0.80;;;;;;;;;;5074377;28;20044;-70
2021/12/25 06:23:08;;;;;;;1.10;0.35;;;;;;;;;;5050968;28;20102;-70
2021/12/25 06:25:34;;;;;;;2.75;0.73;;;;;;;;;;5066045;28;20032;-70
2021/12/25 06:28:00;;;;;;;0.40;0.38;;;;;;;;;;5071088;28;20066;-70
2021/12/25 06:30:27;;;;;;;0.90;0.52;;;;;;;;;;5068035;28;20101;-70
2021/12/25 06:32:53;;;;;;;1.52;0.63;;;;;;;;;;5066716;28;20429;-70
2021/12/25 06:35:19;;;;;;;1.35;0.70;;;;;;;;;;5069294;28;20043;-70
2021/12/25 06:37:46;;;;;;;1.15;0.60;;;;;;;;;;5067292;28;20047;-70
2021/12/25 06:40:18;;;;;;;1.30;0.70;;;;;;;;;;5066095;28;20071;-69
2021/12/25 06:42:45;;;;;;;3.13;1.00;;;;;;;;;;5068250;28;20048;-70
2021/12/25 06:45:11;;;;;;;1.38;0.70;;;;;;;;;;5067445;28;20040;-69
2021/12/25 06:47:37;;;;;;;1.95;1.02;;;;;;;;;;5052553;28;20109;-70
2021/12/25 06:50:07;;;;;;;0.95;0.75;;;;;;;;;;5060816;28;20178;-70
2021/12/25 06:52:33;;;;;;;4.05;0.80;;;;;;;;;;5048546;28;20076;-70
2021/12/25 06:54:59;;;;;;;3.97;0.90;;;;;;;;;;5050603;28;20043;-69
2021/12/25 06:57:28;;;;;;;0.60;0.40;;;;;;;;;;5068695;28;20151;-70
2021/12/25 06:59:54;;;;;;;1.17;1.08;;;;;;;;;;5069083;28;20048;-70
2021/12/25 07:02:21;;;;;;;0.82;0.57;;;;;;;;;;5056109;28;20037;-70
2021/12/25 07:04:47;;;;;;;2.22;0.80;;;;;;;;;;5070387;28;20032;-70
2021/12/25 07:07:13;;;;;;;1.33;1.23;;;;;;;;;;5061568;28;20079;-70
2021/12/25 07:09:39;;;;;;;0.77;0.35;;;;;;;;;;5067593;28;20114;-70
2021/12/25 07:12:06;;;;;;;2.00;0.60;;;;;;;;;;5061791;28;20445;-70
2021/12/25 07:14:32;;;;;;;3.08;0.70;;;;;;;;;;5076868;28;20036;-70
2021/12/25 07:16:58;;;;;;;2.90;0.70;;;;;;;;;;5061186;28;20032;-70
2021/12/25 07:19:24;;;;;;;1.42;0.60;;;;;;;;;;5067535;28;20123;-70
2021/12/25 07:21:50;;;;;;;3.85;0.90;;;;;;;;;;5061799;28;20119;-70
2021/12/25 07:24:17;;;;;;;1.90;1.23;;;;;;;;;;5069414;28;20037;-70
2021/12/25 07:26:43;;;;;;;2.20;0.80;;;;;;;;;;5069034;28;20040;-70
2021/12/25 07:29:09;;;;;;;2.78;1.05;;;;;;;;;;5065618;28;20037;-70
2021/12/25 07:31:35;;;;;;;2.17;0.60;;;;;;;;;;5070212;28;20040;-69
2021/12/25 07:34:02;;;;;;;1.45;0.70;;;;;;;;;;5060379;28;20312;-70
2021/12/25 07:36:29;;;;;;;2.60;0.60;;;;;;;;;;5060008;28;20036;-70
2021/12/25 07:38:56;;;;;;;1.58;0.60;;;;;;;;;;5059597;28;20037;-70
2021/12/25 07:41:22;;;;;;;5.90;0.75;;;;;;;;;;5048647;28;20040;-70
2021/12/25 07:43:48;;;;;;;0.95;0.63;;;;;;;;;;5056550;28;20513;-70
2021/12/25 07:46:15;;;;;;;3.70;0.90;;;;;;;;;;5077857;28;20079;-70
2021/12/25 07:48:42;;;;;;;1.58;0.80;;;;;;;;;;5062739;28;20090;-70
2021/12/25 07:51:08;;;;;;;0.98;0.77;;;;;;;;;;5063756;28;20301;-70
2021/12/25 07:53:34;;;;;;;2.03;0.90;;;;;;;;;;5065070;28;20039;-70
2021/12/25 07:56:00;;;;;;;0.60;0.50;;;;;;;;;;5062049;28;20062;-69
2021/12/25 07:58:27;;;;;;;1.90;0.77;;;;;;;;;;5061740;28;20032;-70
2021/12/25 08:00:53;;;;;;;4.85;1.13;;;;;;;;;;5063843;28;20128;-70
2021/12/25 08:03:20;;;;;;;0.98;0.70;;;;;;;;;;5059226;28;20048;-70
2021/12/25 08:05:46;;;;;;;2.97;0.70;;;;;;;;;;5068793;28;20506;-70
2021/12/25 08:08:12;;;;;;;2.60;0.90;;;;;;;;;;5070942;28;20071;-70
2021/12/25 08:10:42;;;;;;;4.20;0.93;;;;;;;;;;5061061;28;20044;-71
2021/12/25 08:13:09;;;;;;;2.20;0.73;;;;;;;;;;5068136;28;20123;-71
2021/12/25 08:15:35;;;;;;;1.13;0.60;;;;;;;;;;5070057;28;20431;-71
2021/12/25 08:18:01;;;;;;;4.05;0.70;;;;;;;;;;5062945;28;20044;-71
2021/12/25 08:20:28;;;;;;;2.35;0.88;;;;;;;;;;5059104;28;20041;-71
2021/12/25 08:22:55;;;;;;;1.10;0.60;;;;;;;;;;5065303;28;20051;-71
2021/12/25 08:25:22;;;;;;;3.00;0.98;;;;;;;;;;5064192;28;20382;-71
2021/12/25 08:27:48;;;;;;;1.65;0.60;;;;;;;;;;5065503;28;20044;-71
2021/12/25 08:30:16;;;;;;;1.85;1.10;;;;;;;;;;5061610;28;20124;-71
2021/12/25 08:32:42;;;;;;;2.60;0.90;;;;;;;;;;5060459;28;20048;-71
2021/12/25 08:35:09;;;;;;;1.88;1.13;;;;;;;;;;5063768;28;20037;-71
2021/12/25 08:37:36;;;;;;;2.17;0.80;;;;;;;;;;5062056;28;20098;-71
2021/12/25 08:40:03;;;;;;;5.10;0.95;;;;;;;;;;5059963;28;20415;-71
2021/12/25 08:42:29;;;;;;;2.08;0.70;;;;;;;;;;5056798;28;20449;-71
2021/12/25 08:47:27;;;;;;;1.42;0.50;;;;;;;;;;5051950;28;20063;-71
2021/12/25 08:49:54;;;;;;;1.95;1.00;;;;;;;;;;5062401;28;20522;-71
2021/12/25 08:52:22;;;;;;;4.20;1.10;;;;;;;;;;5062597;28;20041;-72
2021/12/25 08:54:48;;;;;;;1.80;0.95;;;;;;;;;;5063965;28;20467;-71
2021/12/25 08:57:15;;;;;;;2.80;0.80;;;;;;;;;;5064807;28;20047;-71
2021/12/25 08:59:43;;;;;;;1.67;1.00;;;;;;;;;;5065326;28;20044;-71
2021/12/25 09:02:13;;;;;;;4.38;1.05;;;;;;;;;;5060576;28;20430;-71
2021/12/25 09:04:40;;;;;;;2.13;1.25;;;;;;;;;;5066945;28;20041;-71
2021/12/25 09:07:07;;;;;;;2.38;0.85;;;;;;;;;;5063779;28;20040;-71
2021/12/25 09:09:33;;;;;;;1.95;0.75;;;;;;;;;;5058949;28;20041;-71
2021/12/25 09:11:59;;;;;;;2.10;0.95;;;;;;;;;;5065567;28;20044;-71
2021/12/25 09:14:26;;;;;;;1.90;1.05;;;;;;;;;;5050067;28;20110;-71
2021/12/25 09:16:52;;;;;;;2.92;1.00;;;;;;;;;;5058015;28;20068;-71
2021/12/25 09:19:18;;;;;;;2.63;1.23;;;;;;;;;;5065599;28;20116;-71
2021/12/25 09:21:44;;;;;;;4.78;1.25;;;;;;;;;;5062254;28;20043;-71
2021/12/25 09:24:11;;;;;;;1.88;0.88;;;;;;;;;;5057510;28;20458;-71
2021/12/25 09:26:37;;;;;;;3.22;1.00;;;;;;;;;;5062509;28;20495;-71
2021/12/25 09:29:04;;;;;;;2.33;1.10;;;;;;;;;;5048942;28;20530;-71
2021/12/25 09:31:30;;;;;;;3.53;0.85;;;;;;;;;;5067399;28;20055;-72
2021/12/25 09:33:57;;;;;;;5.90;1.13;;;;;;;;;;5062975;28;20053;-71
2021/12/25 09:36:23;;;;;;;2.30;1.02;;;;;;;;;;5049122;28;20036;-71
2021/12/25 09:38:51;;;;;;;3.60;1.15;;;;;;;;;;5053291;28;20124;-72
2021/12/25 09:41:18;;;;;;;1.02;0.85;;;;;;;;;;5068311;28;20039;-72
2021/12/25 09:43:47;;;;;;;1.90;0.85;;;;;;;;;;5042386;28;20060;-72
2021/12/25 09:46:13;;;;;;;4.40;2.38;;;;;;;;;;5061634;28;20054;-72
2021/12/25 09:48:39;;;;;;;1.52;0.90;;;;;;;;;;5058815;28;20600;-72
2021/12/25 09:51:06;;;;;;;1.08;0.95;;;;;;;;;;5064749;28;20084;-72
2021/12/25 09:53:32;;;;;;;4.30;0.70;;;;;;;;;;5096857;27;20478;-72
2021/12/25 09:55:59;;;;;;;2.03;1.13;;;;;;;;;;5066499;28;20116;-72
2021/12/25 09:58:25;;;;;;;7.07;1.63;;;;;;;;;;5061138;28;20045;-73
2021/12/25 10:00:53;;;;;;;1.63;1.13;;;;;;;;;;5066288;28;20119;-73
2021/12/25 10:03:20;;;;;;;1.17;0.93;;;;;;;;;;5064198;28;20035;-72
2021/12/25 10:05:48;;;;;;;1.95;1.20;;;;;;;;;;5063492;28;20080;-72
2021/12/25 10:08:15;;;;;;;1.65;0.90;;;;;;;;;;5045816;28;20059;-73
2021/12/25 10:11:02;;;;;;;2.53;0.82;;;;;;;;;;5058466;28;20053;-73
2021/12/25 10:13:31;;;;;;;2.08;0.60;;;;;;;;;;5060217;28;20041;-72
2021/12/25 10:16:00;;;;;;;1.23;0.80;;;;;;;;;;5061080;28;20040;-73
2021/12/25 10:18:34;;;;;;;2.53;1.10;;;;;;;;;;5063351;28;20040;-73
2021/12/25 10:21:18;;;;;;;2.53;1.27;;;;;;;;;;5065933;28;20044;-73
2021/12/25 10:23:45;;;;;;;1.05;0.75;;;;;;;;;;5075417;28;20054;-73
2021/12/25 10:26:21;;;;;;;4.32;0.90;;;;;;;;;;5062056;28;20102;-72
2021/12/25 10:28:48;;;;;;;7.38;1.05;;;;;;;;;;5063877;28;20044;-71
2021/12/25 10:31:16;;;;;;;0.50;0.50;;;;;;;;;;5063157;28;20037;-72
2021/12/25 10:33:44;;;;;;;3.35;0.95;;;;;;;;;;5067139;28;20045;-70
2021/12/25 10:36:22;;;;;;;5.10;1.00;;;;;;;;;;5096404;28;20132;-71
2021/12/25 10:39:06;;;;;;;5.53;1.30;;;;;;;;;;5063225;28;20043;-70
2021/12/25 10:41:35;;;;;;;2.92;1.13;;;;;;;;;;5084481;28;20084;-70
2021/12/25 10:44:13;;;;;;;2.47;1.20;;;;;;;;;;5060654;28;20061;-70
2021/12/25 10:46:50;;;;;;;1.13;0.65;;;;;;;;;;5056845;28;20115;-70
2021/12/25 10:49:16;;;;;;;4.88;0.95;;;;;;;;;;5094255;28;20041;-71
2021/12/25 10:51:42;;;;;;;2.47;1.02;;;;;;;;;;5058206;28;20055;-70
2021/12/25 10:54:12;;;;;;;2.30;1.00;;;;;;;;;;5058074;28;20124;-70
2021/12/25 10:56:39;;;;;;;3.10;1.35;;;;;;;;;;5073966;28;20048;-71
2021/12/25 10:59:06;;;;;;;3.38;1.42;;;;;;;;;;5060847;28;20119;-73
2021/12/25 11:01:37;;;;;;;5.88;1.10;;;;;;;;;;5057018;28;20055;-70
2021/12/25 11:04:04;;;;;;;1.20;0.70;;;;;;;;;;5064429;28;20087;-70
2021/12/25 11:06:30;;;;;;;2.58;1.15;;;;;;;;;;5061452;28;20490;-70
2021/12/25 11:08:58;;;;;;;4.00;1.27;;;;;;;;;;5064834;28;20623;-70
2021/12/25 11:11:24;;;;;;;3.38;1.02;;;;;;;;;;5045648;28;20044;-71
2021/12/25 11:13:55;;;;;;;1.92;1.00;;;;;;;;;;5058292;28;20088;-71
2021/12/25 11:16:31;;;;;;;3.67;1.65;;;;;;;;;;5064236;28;20040;-71
2021/12/25 11:19:05;;;;;;;1.95;1.10;;;;;;;;;;5064738;28;20486;-71
2021/12/25 11:21:37;;;;;;;1.98;1.23;;;;;;;;;;5061692;28;20040;-71
2021/12/25 11:24:21;;;;;;;1.92;1.05;;;;;;;;;;5065162;28;20071;-70
2021/12/25 11:26:58;;;;;;;1.70;0.93;;;;;;;;;;5066019;28;20036;-71
2021/12/25 11:29:26;;;;;;;1.02;0.60;;;;;;;;;;5078922;28;20048;-71
2021/12/25 11:31:53;;;;;;;4.65;1.35;;;;;;;;;;5063831;28;20106;-71
2021/12/25 11:34:20;;;;;;;5.03;1.02;;;;;;;;;;5096400;27;20156;-71
2021/12/25 11:36:48;;;;;;;3.10;1.00;;;;;;;;;;5065406;28;20425;-72
2021/12/25 11:39:19;;;;;;;1.67;0.70;;;;;;;;;;5058563;28;20049;-72
2021/12/25 11:41:46;;;;;;;2.42;0.93;;;;;;;;;;5061055;28;20075;-72
2021/12/25 11:44:31;;;;;;;3.63;1.20;;;;;;;;;;5059219;28;20052;-73
2021/12/25 11:46:57;;;;;;;1.35;0.88;;;;;;;;;;5075146;28;20028;-73
2021/12/25 11:49:24;;;;;;;1.63;1.02;;;;;;;;;;5059392;28;20415;-73
2021/12/25 11:51:51;;;;;;;2.40;1.23;;;;;;;;;;5053869;28;20654;-73
2021/12/25 11:57:11;;;;;;;1.65;1.10;;;;;;;;;;5059219;28;20509;-73
2021/12/25 11:59:50;;;;;;;2.95;0.98;;;;;;;;;;5058805;28;20033;-73
2021/12/25 12:02:35;;;;;;;3.28;1.08;;;;;;;;;;5060619;28;20048;-73
2021/12/25 12:05:16;;;;;;;4.68;1.45;;;;;;;;;;5059554;28;20123;-74
2021/12/25 12:08:04;;;;;;;3.45;1.60;;;;;;;;;;5058794;28;20037;-73
2021/12/25 12:10:43;;;;;;;3.40;1.30;;;;;;;;;;5094060;28;20048;-74
2021/12/25 12:13:29;;;;;;;3.70;1.65;;;;;;;;;;5059786;28;20393;-74
2021/12/25 12:15:58;;;;;;;4.50;1.35;;;;;;;;;;5061774;28;20036;-74
2021/12/25 12:18:31;;;;;;;3.15;1.10;;;;;;;;;;5060419;28;20040;-74
2021/12/25 12:21:11;;;;;;;2.58;1.05;;;;;;;;;;5074939;28;20054;-74
2021/12/25 12:24:08;;;;;;;1.92;0.82;;;;;;;;;;5051907;28;20049;-74
2021/12/25 12:26:48;;;;;;;3.35;1.27;;;;;;;;;;5057049;28;20064;-74
2021/12/25 12:29:15;;;;;;;2.30;1.30;;;;;;;;;;5061031;28;20120;-74
2021/12/25 12:31:41;;;;;;;3.35;1.50;;;;;;;;;;5089806;28;20098;-75
2021/12/25 12:34:26;;;;;;;6.72;1.55;;;;;;;;;;5059680;28;20044;-74
2021/12/25 12:36:52;;;;;;;1.85;1.15;;;;;;;;;;5045022;28;20037;-74
2021/12/25 12:39:19;;;;;;;7.63;3.13;;;;;;;;;;5061035;28;20122;-74
2021/12/25 12:41:55;;;;;;;3.60;1.65;;;;;;;;;;5056453;28;21382;-74
2021/12/25 12:44:31;;;;;;;4.63;2.10;;;;;;;;;;5059648;28;20049;-74
2021/12/25 12:46:59;;;;;;;4.30;1.77;;;;;;;;;;5060228;28;20044;-74
2021/12/25 12:49:31;;;;;;;3.20;1.20;;;;;;;;;;5067246;28;20068;-74
2021/12/25 12:52:17;;;;;;;3.45;1.45;;;;;;;;;;5064518;28;20036;-74
2021/12/25 12:54:47;;;;;;;4.88;1.30;;;;;;;;;;5060455;28;20394;-73
2021/12/25 12:57:24;;;;;;;2.08;1.35;;;;;;;;;;5099283;27;20047;-73
2021/12/25 12:59:52;;;;;;;2.67;1.38;;;;;;;;;;5066112;28;20585;-73
2021/12/25 13:02:19;;;;;;;5.15;1.65;;;;;;;;;;5068668;28;20509;-73
2021/12/25 13:04:47;;;;;;;3.35;1.30;;;;;;;;;;5068183;28;20043;-73
2021/12/25 13:07:14;;;;;;;7.18;1.50;;;;;;;;;;5066567;28;20438;-73
2021/12/25 13:09:50;;;;;;;2.53;1.17;;;;;;;;;;5067388;28;20560;-73
2021/12/25 13:12:31;;;;;;;4.45;1.25;;;;;;;;;;5068781;28;20732;-73
2021/12/25 13:15:01;;;;;;;2.97;1.23;;;;;;;;;;5069915;28;20050;-73
2021/12/25 13:17:27;;;;;;;3.70;1.27;;;;;;;;;;5069767;28;20040;-73
2021/12/25 13:19:53;;;;;;;2.97;1.33;;;;;;;;;;5066117;28;20076;-73
2021/12/25 13:22:19;;;;;;;3.03;1.20;;;;;;;;;;5082654;28;20052;-74
2021/12/25 13:24:46;;;;;;;5.32;1.13;;;;;;;;;;5068078;28;20044;-73
2021/12/25 13:27:19;;;;;;;4.40;1.55;;;;;;;;;;5073240;28;20040;-74
2021/12/25 13:29:45;;;;;;;2.60;1.17;;;;;;;;;;5094676;28;20048;-74
2021/12/25 13:32:11;;;;;;;2.58;1.48;;;;;;;;;;5061834;28;20037;-73
2021/12/25 13:34:39;;;;;;;3.75;1.20;;;;;;;;;;5089342;27;20041;-75
2021/12/25 13:37:13;;;;;;;2.50;1.35;;;;;;;;;;5046035;28;20131;-73
2021/12/25 13:39:41;;;;;;;2.17;1.30;;;;;;;;;;5065907;28;20044;-73
2021/12/25 13:42:07;;;;;;;4.45;1.30;;;;;;;;;;5063598;28;20056;-74
2021/12/25 13:44:34;;;;;;;3.63;2.08;;;;;;;;;;5063077;28;20059;-73
2021/12/25 13:47:02;;;;;;;4.70;2.25;;;;;;;;;;5042496;28;20092;-73
2021/12/25 13:49:28;;;;;;;3.55;1.40;;;;;;;;;;5068618;28;20115;-74
2021/12/25 13:51:54;;;;;;;3.45;1.52;;;;;;;;;;5063901;28;20481;-73
2021/12/25 13:54:21;;;;;;;2.00;1.00;;;8.80;99.90;;;;;;5070164;28;20044;-73
2021/12/25 13:56:48;;;;;;;2.65;1.27;;;;;;;;;;5065224;28;20039;-73
2021/12/25 13:59:14;;;;;;;3.17;1.52;;;13.80;47.60;;;;;;5063792;28;20076;-73
2021/12/25 14:01:40;;;;;;;2.35;1.30;;;;;;;;;;5066088;28;20639;-73
2021/12/25 14:04:07;;;;;;;3.08;1.35;;;;;;;;;;5060824;28;20056;-72
2021/12/25 14:06:33;;;;;;;2.90;1.13;;;;;;;;;;5067299;28;20033;-72
2021/12/25 14:09:00;;;;;;;3.65;1.27;;;;;;;;;;5062837;28;20101;-72
2021/12/25 14:11:28;;;;;;;3.85;1.85;;;;;;;;;;5065432;28;20106;-71
2021/12/25 14:13:55;;;;;;;4.10;2.45;;;;;;;;;;5067085;28;20041;-71
2021/12/25 14:16:22;;;;;;;2.85;1.45;;;;;;;;;;5063921;28;20058;-71
2021/12/25 14:18:48;;;;;;;3.28;1.50;;;;;;;;;;5058171;28;20037;-71
2021/12/25 14:21:17;;;;;;;4.45;2.28;;;;;;;;;;5071327;28;20044;-75
2021/12/25 14:23:43;;;;;;;5.28;2.22;;;;;;;;;;5072836;28;20052;-75
2021/12/25 14:26:10;;;;;;;3.88;1.95;;;;;;;;;;5070598;28;20075;-75
2021/12/25 14:28:37;;;;;;;3.13;1.50;;;;;;;;;;5071427;28;20116;-74
2021/12/25 14:31:03;;;;;;;3.88;1.40;;;;;;;;;;5068312;28;20397;-75
2021/12/25 14:33:30;;;;;;;1.88;1.20;;;;;;;;;;5050878;28;20144;-74
2021/12/25 14:35:57;;;;;;;10.48;2.33;;;;;;;;;;5062449;28;20439;-74
2021/12/25 14:38:23;;;;;;;4.13;2.03;;;;;;;;;;5063911;28;20116;-74
2021/12/25 14:40:51;;;;;;;3.38;1.58;;;;;;;;;;5061909;28;20121;-74
2021/12/25 14:43:18;;;;;;;2.10;1.55;;;;;;;;;;5059909;28;20066;-74
2021/12/25 14:45:46;;;;;;;1.98;1.30;;;;;;;;;;5073670;28;20063;-74
2021/12/25 14:48:13;;;;;;;2.53;1.58;;;;;;;;;;5064078;28;20041;-74
2021/12/25 14:50:39;;;;;;;3.22;1.63;;;;;;;;;;5098494;28;20051;-74
2021/12/25 14:53:16;;;;;;;5.57;1.70;;;;;;;;;;5048754;28;20571;-74
2021/12/25 14:55:44;;;;;;;3.88;1.70;;;;;;;;;;5064026;28;20051;-73
2021/12/25 14:58:25;;;;;;;6.22;2.05;;;;;;;;;;5061490;28;20494;-74
2021/12/25 15:01:03;;;;;;;3.25;1.83;;;;;;;;;;5063454;28;20032;-74
2021/12/25 15:03:29;;;;;;;8.82;2.53;;;;;;;;;;5063107;28;20537;-73
2021/12/25 15:05:57;;;;;;;3.53;1.60;;;;;;;;;;5064609;28;20036;-74
2021/12/25 15:08:23;;;;;;;9.65;2.13;;;;;;;;;;5063724;28;20037;-73
2021/12/25 15:10:50;;;;;;;5.40;1.60;;;;;;;;;;5058963;28;20056;-73
2021/12/25 15:13:20;;;;;;;3.97;1.77;;;;;;;;;;5063288;28;20093;-73
2021/12/25 15:15:47;;;;;;;5.60;1.40;;;;;;;;;;5064566;28;20051;-72
2021/12/25 15:18:24;;;;;;;2.85;1.50;;;;;;;;;;5063602;28;20048;-73
2021/12/25 15:21:02;;;;;;;2.47;1.48;;;;;;;;;;5058803;28;20490;-73
2021/12/25 15:23:29;;;;;;;3.28;1.50;;;;;;;;;;5081938;28;20043;-74
2021/12/25 15:26:25;;;;;;;2.90;1.50;;;;;;;;;;5063299;28;20048;-74
2021/12/25 15:28:59;;;;;;;7.40;2.10;;;;;;;;;;5061611;28;20484;-73
2021/12/25 15:31:27;;;;;;;5.35;1.75;;;;;;;;;;5059312;28;20441;-73
2021/12/25 15:33:56;;;;;;;2.80;1.42;;;;;;;;;;5078162;28;20048;-74
2021/12/25 15:36:22;;;;;;;3.55;1.50;;;;;;;;;;5060493;28;20585;-74
2021/12/25 15:38:50;;;;;;;4.35;2.28;;;;;;;;;;5059533;28;20041;-74
2021/12/25 15:41:16;;;;;;;5.70;1.95;;;;;;;;;;5063873;28;20043;-74
2021/12/25 15:43:46;;;;;;;3.53;2.03;;;;;;;;;;5056946;28;20182;-75
2021/12/25 15:46:13;;;;;;;2.65;1.42;;;;;;;;;;5057402;28;20064;-75
2021/12/25 15:48:39;;;;;;;2.97;1.70;;;;;;;;;;5061624;28;20498;-74
2021/12/25 15:51:06;;;;;;;2.72;1.63;;;;;;;;;;5060734;28;20037;-73
2021/12/25 15:53:32;;;;;;;2.83;1.42;;;;;;;;;;5059921;28;20506;-73
2021/12/25 15:55:59;;;;;;;2.63;1.50;;;;;;;;;;5063664;28;20550;-73
2021/12/25 15:58:25;;;;;;;4.80;1.40;;;;;;;;;;5063906;28;20040;-74
2021/12/25 16:00:51;;;;;;;5.18;2.53;;;;;;;;;;5062861;28;20091;-74
2021/12/25 16:03:18;;;;;;;5.53;2.95;;;;;;;;;;5045693;28;20044;-73
2021/12/25 16:05:44;;;;;;;4.03;1.65;;;;;;;;;;5064158;28;20501;-74
2021/12/25 16:08:11;;;;;;;3.03;1.75;;;;;;;;;;5076056;28;20040;-74
2021/12/25 16:10:39;;;;;;;3.42;1.63;;;;;;;;;;5065114;28;20049;-73
2021/12/25 16:13:05;;;;;;;3.58;2.13;;;;;;;;;;5064373;28;20781;-74
2021/12/25 16:15:32;;;;;;;3.72;1.58;;;;;;;;;;5068655;28;20426;-74
2021/12/25 16:17:58;;;;;;;5.30;2.05;;;;;;;;;;5064993;28;20036;-74